sensor_id;sensor_type;location;lat;lon;timestamp;P1;durP1;ratioP1;P2;durP2;ratioP2
3355;SDS011;1691;52.486;13.374;2023-02-15T00:00:04;43.53;;;20.87;;
3355;SDS011;1691;52.486;13.374;2023-02-15T00:02:34;38.97;;;21.27;;
3355;SDS011;1691;52.486;13.374;2023-02-15T00:05:01;42.03;;;22.60;;
3355;SDS011;1691;52.486;13.374;2023-02-15T00:07:28;40.53;;;21.77;;
3355;SDS011;1691;52.486;13.374;2023-02-15T00:09:55;48.13;;;19.73;;
3355;SDS011;1691;52.486;13.374;2023-02-15T00:12:22;42.60;;;22.47;;
3355;SDS011;1691;52.486;13.374;2023-02-15T00:14:49;39.23;;;21.17;;
3355;SDS011;1691;52.486;13.374;2023-02-15T00:17:16;41.50;;;22.23;;
3355;SDS011;1691;52.486;13.374;2023-02-15T00:19:43;43.37;;;23.37;;
3355;SDS011;1691;52.486;13.374;2023-02-15T00:22:09;40.90;;;21.90;;
3355;SDS011;1691;52.486;13.374;2023-02-15T00:24:36;40.13;;;20.00;;
3355;SDS011;1691;52.486;13.374;2023-02-15T00:27:03;37.83;;;20.67;;
3355;SDS011;1691;52.486;13.374;2023-02-15T00:29:30;41.00;;;21.80;;
3355;SDS011;1691;52.486;13.374;2023-02-15T00:31:57;43.03;;;21.93;;
3355;SDS011;1691;52.486;13.374;2023-02-15T00:34:25;40.93;;;21.87;;
3355;SDS011;1691;52.486;13.374;2023-02-15T00:36:53;32.97;;;19.63;;
3355;SDS011;1691;52.486;13.374;2023-02-15T00:39:20;37.77;;;22.77;;
3355;SDS011;1691;52.486;13.374;2023-02-15T00:41:47;40.43;;;21.30;;
3355;SDS011;1691;52.486;13.374;2023-02-15T00:44:14;42.53;;;23.90;;
3355;SDS011;1691;52.486;13.374;2023-02-15T00:46:41;42.77;;;22.93;;
3355;SDS011;1691;52.486;13.374;2023-02-15T00:49:09;55.47;;;25.60;;
3355;SDS011;1691;52.486;13.374;2023-02-15T00:51:36;47.93;;;24.47;;
3355;SDS011;1691;52.486;13.374;2023-02-15T00:54:04;41.60;;;24.20;;
3355;SDS011;1691;52.486;13.374;2023-02-15T00:56:31;42.30;;;24.17;;
3355;SDS011;1691;52.486;13.374;2023-02-15T00:58:58;47.67;;;23.00;;
3355;SDS011;1691;52.486;13.374;2023-02-15T01:01:25;42.60;;;22.60;;
3355;SDS011;1691;52.486;13.374;2023-02-15T01:03:52;46.70;;;24.80;;
3355;SDS011;1691;52.486;13.374;2023-02-15T01:06:19;44.90;;;24.27;;
3355;SDS011;1691;52.486;13.374;2023-02-15T01:08:46;52.10;;;23.17;;
3355;SDS011;1691;52.486;13.374;2023-02-15T01:11:15;47.43;;;25.03;;
3355;SDS011;1691;52.486;13.374;2023-02-15T01:13:52;40.30;;;22.70;;
3355;SDS011;1691;52.486;13.374;2023-02-15T01:16:22;40.23;;;23.27;;
3355;SDS011;1691;52.486;13.374;2023-02-15T01:18:51;45.60;;;22.97;;
3355;SDS011;1691;52.486;13.374;2023-02-15T01:21:21;49.37;;;25.60;;
3355;SDS011;1691;52.486;13.374;2023-02-15T01:23:50;44.53;;;25.00;;
3355;SDS011;1691;52.486;13.374;2023-02-15T01:26:17;49.23;;;23.93;;
3355;SDS011;1691;52.486;13.374;2023-02-15T01:28:46;49.57;;;26.50;;
3355;SDS011;1691;52.486;13.374;2023-02-15T01:31:14;48.10;;;24.30;;
3355;SDS011;1691;52.486;13.374;2023-02-15T01:33:45;52.00;;;25.50;;
3355;SDS011;1691;52.486;13.374;2023-02-15T01:36:13;55.70;;;28.73;;
3355;SDS011;1691;52.486;13.374;2023-02-15T01:38:40;55.60;;;29.10;;
3355;SDS011;1691;52.486;13.374;2023-02-15T01:41:08;46.23;;;26.13;;
3355;SDS011;1691;52.486;13.374;2023-02-15T01:43:57;56.80;;;26.50;;
3355;SDS011;1691;52.486;13.374;2023-02-15T01:46:28;46.53;;;24.57;;
3355;SDS011;1691;52.486;13.374;2023-02-15T01:49:11;47.63;;;25.10;;
3355;SDS011;1691;52.486;13.374;2023-02-15T01:51:42;42.67;;;24.50;;
3355;SDS011;1691;52.486;13.374;2023-02-15T01:54:23;51.90;;;25.40;;
3355;SDS011;1691;52.486;13.374;2023-02-15T01:56:57;50.23;;;26.90;;
3355;SDS011;1691;52.486;13.374;2023-02-15T01:59:29;48.17;;;26.37;;
3355;SDS011;1691;52.486;13.374;2023-02-15T02:01:59;46.40;;;24.40;;
3355;SDS011;1691;52.486;13.374;2023-02-15T02:04:33;50.80;;;26.40;;
3355;SDS011;1691;52.486;13.374;2023-02-15T02:07:08;56.57;;;26.90;;
3355;SDS011;1691;52.486;13.374;2023-02-15T02:09:36;51.50;;;27.27;;
3355;SDS011;1691;52.486;13.374;2023-02-15T02:12:03;59.07;;;29.47;;
3355;SDS011;1691;52.486;13.374;2023-02-15T02:14:31;52.60;;;27.00;;
3355;SDS011;1691;52.486;13.374;2023-02-15T02:17:42;48.70;;;26.87;;
3355;SDS011;1691;52.486;13.374;2023-02-15T02:23:24;50.07;;;25.17;;
3355;SDS011;1691;52.486;13.374;2023-02-15T02:35:26;58.97;;;28.97;;
3355;SDS011;1691;52.486;13.374;2023-02-15T02:46:52;56.47;;;28.93;;
3355;SDS011;1691;52.486;13.374;2023-02-15T02:49:44;56.63;;;28.83;;
3355;SDS011;1691;52.486;13.374;2023-02-15T02:55:10;63.67;;;31.07;;
3355;SDS011;1691;52.486;13.374;2023-02-15T02:58:09;67.97;;;30.97;;
3355;SDS011;1691;52.486;13.374;2023-02-15T03:00:50;81.77;;;32.40;;
3355;SDS011;1691;52.486;13.374;2023-02-15T03:06:10;71.00;;;34.43;;
3355;SDS011;1691;52.486;13.374;2023-02-15T03:08:48;77.23;;;33.73;;
3355;SDS011;1691;52.486;13.374;2023-02-15T03:11:23;77.17;;;34.47;;
3355;SDS011;1691;52.486;13.374;2023-02-15T03:13:50;74.47;;;31.40;;
3355;SDS011;1691;52.486;13.374;2023-02-15T03:16:17;67.67;;;30.90;;
3355;SDS011;1691;52.486;13.374;2023-02-15T03:21:45;69.43;;;31.43;;
3355;SDS011;1691;52.486;13.374;2023-02-15T03:24:24;68.50;;;31.90;;
3355;SDS011;1691;52.486;13.374;2023-02-15T03:26:59;65.40;;;31.57;;
3355;SDS011;1691;52.486;13.374;2023-02-15T03:29:33;65.40;;;28.90;;
3355;SDS011;1691;52.486;13.374;2023-02-15T03:32:02;64.73;;;30.40;;
3355;SDS011;1691;52.486;13.374;2023-02-15T03:34:33;57.10;;;28.77;;
3355;SDS011;1691;52.486;13.374;2023-02-15T03:39:45;70.47;;;30.60;;
3355;SDS011;1691;52.486;13.374;2023-02-15T03:42:26;62.90;;;29.83;;
3355;SDS011;1691;52.486;13.374;2023-02-15T03:45:10;65.20;;;30.00;;
3355;SDS011;1691;52.486;13.374;2023-02-15T03:47:43;70.40;;;30.30;;
3355;SDS011;1691;52.486;13.374;2023-02-15T03:50:15;68.43;;;31.00;;
3355;SDS011;1691;52.486;13.374;2023-02-15T03:53:05;65.13;;;28.40;;
3355;SDS011;1691;52.486;13.374;2023-02-15T03:55:36;65.90;;;30.13;;
3355;SDS011;1691;52.486;13.374;2023-02-15T03:58:03;62.70;;;29.57;;
3355;SDS011;1691;52.486;13.374;2023-02-15T04:00:59;70.47;;;29.97;;
3355;SDS011;1691;52.486;13.374;2023-02-15T04:03:55;73.00;;;29.57;;
3355;SDS011;1691;52.486;13.374;2023-02-15T04:06:32;67.97;;;28.50;;
3355;SDS011;1691;52.486;13.374;2023-02-15T04:08:59;61.27;;;30.70;;
3355;SDS011;1691;52.486;13.374;2023-02-15T04:11:45;75.10;;;32.30;;
3355;SDS011;1691;52.486;13.374;2023-02-15T04:14:11;74.57;;;31.83;;
3355;SDS011;1691;52.486;13.374;2023-02-15T04:16:57;66.40;;;31.07;;
3355;SDS011;1691;52.486;13.374;2023-02-15T04:19:24;64.40;;;30.90;;
3355;SDS011;1691;52.486;13.374;2023-02-15T04:22:09;69.73;;;29.57;;
3355;SDS011;1691;52.486;13.374;2023-02-15T04:24:55;68.43;;;29.80;;
3355;SDS011;1691;52.486;13.374;2023-02-15T04:27:44;64.55;;;31.20;;
3355;SDS011;1691;52.486;13.374;2023-02-15T04:30:14;69.70;;;30.60;;
3355;SDS011;1691;52.486;13.374;2023-02-15T04:32:44;66.30;;;31.83;;
3355;SDS011;1691;52.486;13.374;2023-02-15T04:35:12;72.67;;;30.40;;
3355;SDS011;1691;52.486;13.374;2023-02-15T04:37:40;61.60;;;29.50;;
3355;SDS011;1691;52.486;13.374;2023-02-15T04:40:09;69.57;;;30.60;;
3355;SDS011;1691;52.486;13.374;2023-02-15T04:42:39;68.93;;;29.37;;
3355;SDS011;1691;52.486;13.374;2023-02-15T04:45:06;76.90;;;32.70;;
3355;SDS011;1691;52.486;13.374;2023-02-15T04:47:34;73.33;;;30.90;;
3355;SDS011;1691;52.486;13.374;2023-02-15T04:50:01;65.17;;;29.40;;
3355;SDS011;1691;52.486;13.374;2023-02-15T04:52:28;59.97;;;27.93;;
3355;SDS011;1691;52.486;13.374;2023-02-15T04:54:55;81.30;;;29.63;;
3355;SDS011;1691;52.486;13.374;2023-02-15T04:57:22;75.97;;;29.60;;
3355;SDS011;1691;52.486;13.374;2023-02-15T04:59:49;71.07;;;30.87;;
3355;SDS011;1691;52.486;13.374;2023-02-15T05:02:16;76.23;;;29.37;;
3355;SDS011;1691;52.486;13.374;2023-02-15T05:04:43;66.83;;;28.90;;
3355;SDS011;1691;52.486;13.374;2023-02-15T05:07:10;71.57;;;29.90;;
3355;SDS011;1691;52.486;13.374;2023-02-15T05:09:37;62.60;;;29.63;;
3355;SDS011;1691;52.486;13.374;2023-02-15T05:12:04;59.40;;;27.67;;
3355;SDS011;1691;52.486;13.374;2023-02-15T05:14:31;62.07;;;28.40;;
3355;SDS011;1691;52.486;13.374;2023-02-15T05:16:58;62.30;;;29.10;;
3355;SDS011;1691;52.486;13.374;2023-02-15T05:19:27;66.50;;;28.90;;
3355;SDS011;1691;52.486;13.374;2023-02-15T05:21:54;68.70;;;31.17;;
3355;SDS011;1691;52.486;13.374;2023-02-15T05:24:21;56.97;;;26.77;;
3355;SDS011;1691;52.486;13.374;2023-02-15T05:27:07;68.70;;;29.00;;
3355;SDS011;1691;52.486;13.374;2023-02-15T05:29:57;57.57;;;27.77;;
3355;SDS011;1691;52.486;13.374;2023-02-15T05:32:25;54.07;;;27.80;;
3355;SDS011;1691;52.486;13.374;2023-02-15T05:34:52;75.00;;;31.30;;
3355;SDS011;1691;52.486;13.374;2023-02-15T05:37:19;67.87;;;28.90;;
3355;SDS011;1691;52.486;13.374;2023-02-15T05:39:46;67.17;;;30.00;;
3355;SDS011;1691;52.486;13.374;2023-02-15T05:42:13;71.13;;;30.10;;
3355;SDS011;1691;52.486;13.374;2023-02-15T05:44:40;61.10;;;27.37;;
3355;SDS011;1691;52.486;13.374;2023-02-15T05:47:06;86.33;;;30.33;;
3355;SDS011;1691;52.486;13.374;2023-02-15T05:49:33;79.03;;;30.90;;
3355;SDS011;1691;52.486;13.374;2023-02-15T05:52:00;80.77;;;30.00;;
3355;SDS011;1691;52.486;13.374;2023-02-15T05:54:29;97.70;;;29.93;;
3355;SDS011;1691;52.486;13.374;2023-02-15T05:56:56;108.83;;;31.67;;
3355;SDS011;1691;52.486;13.374;2023-02-15T05:59:23;120.70;;;28.17;;
3355;SDS011;1691;52.486;13.374;2023-02-15T06:01:50;107.17;;;31.47;;
3355;SDS011;1691;52.486;13.374;2023-02-15T06:04:17;129.80;;;30.50;;
3355;SDS011;1691;52.486;13.374;2023-02-15T06:06:44;207.13;;;31.20;;
3355;SDS011;1691;52.486;13.374;2023-02-15T06:09:11;293.57;;;30.60;;
3355;SDS011;1691;52.486;13.374;2023-02-15T06:11:39;171.80;;;30.87;;
3355;SDS011;1691;52.486;13.374;2023-02-15T06:14:06;205.60;;;31.00;;
3355;SDS011;1691;52.486;13.374;2023-02-15T06:16:33;183.53;;;30.07;;
3355;SDS011;1691;52.486;13.374;2023-02-15T06:19:00;141.43;;;30.60;;
3355;SDS011;1691;52.486;13.374;2023-02-15T06:21:28;232.53;;;31.23;;
3355;SDS011;1691;52.486;13.374;2023-02-15T06:23:56;262.97;;;29.47;;
3355;SDS011;1691;52.486;13.374;2023-02-15T06:26:23;211.27;;;33.43;;
3355;SDS011;1691;52.486;13.374;2023-02-15T06:28:50;192.10;;;30.60;;
3355;SDS011;1691;52.486;13.374;2023-02-15T06:31:17;200.17;;;30.60;;
3355;SDS011;1691;52.486;13.374;2023-02-15T06:33:44;100.63;;;29.17;;
3355;SDS011;1691;52.486;13.374;2023-02-15T06:36:11;239.93;;;30.03;;
3355;SDS011;1691;52.486;13.374;2023-02-15T06:38:38;216.63;;;30.50;;
3355;SDS011;1691;52.486;13.374;2023-02-15T06:41:05;174.97;;;32.23;;
3355;SDS011;1691;52.486;13.374;2023-02-15T06:43:32;185.90;;;32.13;;
3355;SDS011;1691;52.486;13.374;2023-02-15T06:46:00;158.83;;;31.63;;
3355;SDS011;1691;52.486;13.374;2023-02-15T06:48:27;155.60;;;31.30;;
3355;SDS011;1691;52.486;13.374;2023-02-15T06:50:54;169.60;;;30.50;;
3355;SDS011;1691;52.486;13.374;2023-02-15T06:53:21;184.80;;;30.50;;
3355;SDS011;1691;52.486;13.374;2023-02-15T06:55:48;180.93;;;32.00;;
3355;SDS011;1691;52.486;13.374;2023-02-15T06:58:15;169.63;;;29.53;;
3355;SDS011;1691;52.486;13.374;2023-02-15T07:00:42;120.20;;;29.47;;
3355;SDS011;1691;52.486;13.374;2023-02-15T07:03:09;178.67;;;31.63;;
3355;SDS011;1691;52.486;13.374;2023-02-15T07:05:39;205.23;;;31.47;;
3355;SDS011;1691;52.486;13.374;2023-02-15T07:08:06;99.77;;;29.03;;
3355;SDS011;1691;52.486;13.374;2023-02-15T07:10:33;104.83;;;27.60;;
3355;SDS011;1691;52.486;13.374;2023-02-15T07:13:00;166.93;;;28.83;;
3355;SDS011;1691;52.486;13.374;2023-02-15T07:15:26;131.57;;;26.77;;
3355;SDS011;1691;52.486;13.374;2023-02-15T07:17:53;103.00;;;26.20;;
3355;SDS011;1691;52.486;13.374;2023-02-15T07:20:21;170.97;;;26.57;;
3355;SDS011;1691;52.486;13.374;2023-02-15T07:22:49;147.93;;;28.67;;
3355;SDS011;1691;52.486;13.374;2023-02-15T07:25:16;149.30;;;28.50;;
3355;SDS011;1691;52.486;13.374;2023-02-15T07:27:44;162.07;;;29.07;;
3355;SDS011;1691;52.486;13.374;2023-02-15T07:30:12;154.70;;;24.90;;
3355;SDS011;1691;52.486;13.374;2023-02-15T07:32:42;204.53;;;26.83;;
3355;SDS011;1691;52.486;13.374;2023-02-15T07:35:30;155.57;;;25.23;;
3355;SDS011;1691;52.486;13.374;2023-02-15T07:37:58;70.30;;;27.33;;
3355;SDS011;1691;52.486;13.374;2023-02-15T07:40:26;145.87;;;25.57;;
3355;SDS011;1691;52.486;13.374;2023-02-15T07:42:53;110.53;;;26.77;;
3355;SDS011;1691;52.486;13.374;2023-02-15T07:45:25;79.03;;;24.90;;
3355;SDS011;1691;52.486;13.374;2023-02-15T07:47:52;97.63;;;24.73;;
3355;SDS011;1691;52.486;13.374;2023-02-15T07:50:19;79.40;;;27.00;;
3355;SDS011;1691;52.486;13.374;2023-02-15T07:52:45;111.33;;;26.30;;
3355;SDS011;1691;52.486;13.374;2023-02-15T07:55:13;138.07;;;26.87;;
3355;SDS011;1691;52.486;13.374;2023-02-15T07:57:43;86.97;;;24.67;;
3355;SDS011;1691;52.486;13.374;2023-02-15T08:00:12;154.57;;;25.97;;
3355;SDS011;1691;52.486;13.374;2023-02-15T08:02:41;96.57;;;26.70;;
3355;SDS011;1691;52.486;13.374;2023-02-15T08:05:09;92.40;;;27.23;;
3355;SDS011;1691;52.486;13.374;2023-02-15T08:07:36;147.83;;;26.23;;
3355;SDS011;1691;52.486;13.374;2023-02-15T08:10:03;83.60;;;26.17;;
3355;SDS011;1691;52.486;13.374;2023-02-15T08:12:30;61.90;;;25.03;;
3355;SDS011;1691;52.486;13.374;2023-02-15T08:14:57;136.93;;;26.17;;
3355;SDS011;1691;52.486;13.374;2023-02-15T08:17:24;61.53;;;25.27;;
3355;SDS011;1691;52.486;13.374;2023-02-15T08:19:51;93.53;;;25.40;;
3355;SDS011;1691;52.486;13.374;2023-02-15T08:22:18;72.57;;;25.83;;
3355;SDS011;1691;52.486;13.374;2023-02-15T08:24:45;84.57;;;25.83;;
3355;SDS011;1691;52.486;13.374;2023-02-15T08:27:12;93.30;;;25.50;;
3355;SDS011;1691;52.486;13.374;2023-02-15T08:29:39;99.20;;;26.70;;
3355;SDS011;1691;52.486;13.374;2023-02-15T08:32:09;85.67;;;23.97;;
3355;SDS011;1691;52.486;13.374;2023-02-15T08:34:39;42.70;;;21.57;;
3355;SDS011;1691;52.486;13.374;2023-02-15T08:37:08;61.87;;;21.43;;
3355;SDS011;1691;52.486;13.374;2023-02-15T08:39:35;87.27;;;22.13;;
3355;SDS011;1691;52.486;13.374;2023-02-15T08:42:02;72.07;;;21.87;;
3355;SDS011;1691;52.486;13.374;2023-02-15T08:44:30;95.77;;;28.07;;
3355;SDS011;1691;52.486;13.374;2023-02-15T08:46:57;78.90;;;22.33;;
3355;SDS011;1691;52.486;13.374;2023-02-15T08:49:29;77.53;;;23.30;;
3355;SDS011;1691;52.486;13.374;2023-02-15T08:51:57;68.77;;;24.67;;
3355;SDS011;1691;52.486;13.374;2023-02-15T08:54:24;77.73;;;23.50;;
3355;SDS011;1691;52.486;13.374;2023-02-15T08:56:51;48.17;;;23.67;;
3355;SDS011;1691;52.486;13.374;2023-02-15T08:59:19;69.33;;;25.07;;
3355;SDS011;1691;52.486;13.374;2023-02-15T09:01:49;66.33;;;23.67;;
3355;SDS011;1691;52.486;13.374;2023-02-15T09:04:18;58.77;;;22.70;;
3355;SDS011;1691;52.486;13.374;2023-02-15T09:06:46;50.70;;;23.27;;
3355;SDS011;1691;52.486;13.374;2023-02-15T09:09:16;67.97;;;22.17;;
3355;SDS011;1691;52.486;13.374;2023-02-15T09:11:45;48.17;;;21.10;;
3355;SDS011;1691;52.486;13.374;2023-02-15T09:14:21;46.13;;;21.77;;
3355;SDS011;1691;52.486;13.374;2023-02-15T09:16:49;45.97;;;23.17;;
3355;SDS011;1691;52.486;13.374;2023-02-15T09:19:19;43.93;;;22.17;;
3355;SDS011;1691;52.486;13.374;2023-02-15T09:21:48;74.63;;;21.07;;
3355;SDS011;1691;52.486;13.374;2023-02-15T09:24:16;48.10;;;21.63;;
3355;SDS011;1691;52.486;13.374;2023-02-15T09:26:44;42.27;;;22.27;;
3355;SDS011;1691;52.486;13.374;2023-02-15T09:29:14;43.33;;;23.30;;
3355;SDS011;1691;52.486;13.374;2023-02-15T09:31:47;37.23;;;21.57;;
3355;SDS011;1691;52.486;13.374;2023-02-15T09:34:17;45.23;;;22.90;;
3355;SDS011;1691;52.486;13.374;2023-02-15T09:36:46;54.20;;;22.80;;
3355;SDS011;1691;52.486;13.374;2023-02-15T09:39:21;40.60;;;22.43;;
3355;SDS011;1691;52.486;13.374;2023-02-15T09:41:58;45.20;;;21.83;;
3355;SDS011;1691;52.486;13.374;2023-02-15T09:56:32;46.20;;;24.07;;
3355;SDS011;1691;52.486;13.374;2023-02-15T09:59:09;42.73;;;22.37;;
3355;SDS011;1691;52.486;13.374;2023-02-15T10:02:16;41.43;;;21.67;;
3355;SDS011;1691;52.486;13.374;2023-02-15T10:05:15;40.07;;;21.33;;
3355;SDS011;1691;52.486;13.374;2023-02-15T10:08:15;43.40;;;21.67;;
3355;SDS011;1691;52.486;13.374;2023-02-15T10:17:35;42.43;;;21.90;;
3355;SDS011;1691;52.486;13.374;2023-02-15T10:20:30;42.23;;;21.33;;
3355;SDS011;1691;52.486;13.374;2023-02-15T10:26:18;43.47;;;22.63;;
3355;SDS011;1691;52.486;13.374;2023-02-15T10:37:02;36.37;;;20.37;;
3355;SDS011;1691;52.486;13.374;2023-02-15T10:48:48;33.17;;;20.80;;
3355;SDS011;1691;52.486;13.374;2023-02-15T10:51:44;42.23;;;22.83;;
3355;SDS011;1691;52.486;13.374;2023-02-15T11:01:13;47.50;;;23.70;;
3355;SDS011;1691;52.486;13.374;2023-02-15T11:06:49;39.87;;;23.03;;
3355;SDS011;1691;52.486;13.374;2023-02-15T11:09:22;40.03;;;21.43;;
3355;SDS011;1691;52.486;13.374;2023-02-15T11:11:59;40.90;;;23.80;;
3355;SDS011;1691;52.486;13.374;2023-02-15T11:14:31;41.67;;;22.27;;
3355;SDS011;1691;52.486;13.374;2023-02-15T11:17:16;42.30;;;22.17;;
3355;SDS011;1691;52.486;13.374;2023-02-15T11:19:54;41.17;;;22.73;;
3355;SDS011;1691;52.486;13.374;2023-02-15T11:22:31;39.67;;;22.83;;
3355;SDS011;1691;52.486;13.374;2023-02-15T11:25:00;39.77;;;24.30;;
3355;SDS011;1691;52.486;13.374;2023-02-15T11:27:31;45.33;;;23.43;;
3355;SDS011;1691;52.486;13.374;2023-02-15T11:30:03;39.40;;;22.43;;
3355;SDS011;1691;52.486;13.374;2023-02-15T11:32:40;47.67;;;25.33;;
3355;SDS011;1691;52.486;13.374;2023-02-15T11:40:36;38.80;;;23.67;;
3355;SDS011;1691;52.486;13.374;2023-02-15T11:45:52;43.00;;;23.17;;
3355;SDS011;1691;52.486;13.374;2023-02-15T11:48:20;43.63;;;23.20;;
3355;SDS011;1691;52.486;13.374;2023-02-15T11:50:48;47.17;;;25.70;;
3355;SDS011;1691;52.486;13.374;2023-02-15T11:53:17;44.37;;;24.70;;
3355;SDS011;1691;52.486;13.374;2023-02-15T11:55:55;39.40;;;21.93;;
3355;SDS011;1691;52.486;13.374;2023-02-15T12:01:16;41.20;;;22.53;;
3355;SDS011;1691;52.486;13.374;2023-02-15T12:04:10;42.23;;;22.37;;
3355;SDS011;1691;52.486;13.374;2023-02-15T12:07:00;44.97;;;22.90;;
3355;SDS011;1691;52.486;13.374;2023-02-15T12:09:56;52.37;;;22.33;;
3355;SDS011;1691;52.486;13.374;2023-02-15T12:12:34;38.30;;;22.20;;
3355;SDS011;1691;52.486;13.374;2023-02-15T12:15:06;44.27;;;22.10;;
3355;SDS011;1691;52.486;13.374;2023-02-15T12:22:53;27.63;;;18.23;;
3355;SDS011;1691;52.486;13.374;2023-02-15T12:25:35;47.10;;;24.27;;
3355;SDS011;1691;52.486;13.374;2023-02-15T12:28:22;45.00;;;24.57;;
3355;SDS011;1691;52.486;13.374;2023-02-15T12:31:07;31.73;;;19.73;;
3355;SDS011;1691;52.486;13.374;2023-02-15T12:33:50;40.43;;;19.77;;
3355;SDS011;1691;52.486;13.374;2023-02-15T12:36:21;39.97;;;24.00;;
3355;SDS011;1691;52.486;13.374;2023-02-15T12:41:46;34.13;;;21.73;;
3355;SDS011;1691;52.486;13.374;2023-02-15T12:44:26;40.17;;;22.67;;
3355;SDS011;1691;52.486;13.374;2023-02-15T12:49:42;37.77;;;21.50;;
3355;SDS011;1691;52.486;13.374;2023-02-15T12:54:47;37.57;;;21.53;;
3355;SDS011;1691;52.486;13.374;2023-02-15T12:57:32;41.17;;;21.17;;
3355;SDS011;1691;52.486;13.374;2023-02-15T13:00:34;37.00;;;22.10;;
3355;SDS011;1691;52.486;13.374;2023-02-15T13:03:23;37.67;;;22.13;;
3355;SDS011;1691;52.486;13.374;2023-02-15T13:06:08;40.40;;;21.20;;
3355;SDS011;1691;52.486;13.374;2023-02-15T13:08:58;34.30;;;19.70;;
3355;SDS011;1691;52.486;13.374;2023-02-15T13:15:40;35.00;;;19.37;;
3355;SDS011;1691;52.486;13.374;2023-02-15T13:18:51;29.37;;;18.90;;
3355;SDS011;1691;52.486;13.374;2023-02-15T13:21:50;36.10;;;21.73;;
3355;SDS011;1691;52.486;13.374;2023-02-15T13:24:42;35.40;;;20.13;;
3355;SDS011;1691;52.486;13.374;2023-02-15T13:27:41;36.03;;;21.20;;
3355;SDS011;1691;52.486;13.374;2023-02-15T13:30:43;38.63;;;22.20;;
3355;SDS011;1691;52.486;13.374;2023-02-15T13:33:56;36.40;;;20.07;;
3355;SDS011;1691;52.486;13.374;2023-02-15T13:36:55;33.73;;;19.77;;
3355;SDS011;1691;52.486;13.374;2023-02-15T13:40:01;32.67;;;20.03;;
3355;SDS011;1691;52.486;13.374;2023-02-15T13:46:40;34.10;;;19.70;;
3355;SDS011;1691;52.486;13.374;2023-02-15T14:13:54;22.70;;;15.50;;
3355;SDS011;1691;52.486;13.374;2023-02-15T14:26:40;19.97;;;14.00;;
3355;SDS011;1691;52.486;13.374;2023-02-15T14:31:57;23.73;;;16.93;;
3355;SDS011;1691;52.486;13.374;2023-02-15T14:34:35;24.17;;;16.23;;
3355;SDS011;1691;52.486;13.374;2023-02-15T14:37:28;23.43;;;14.83;;
3355;SDS011;1691;52.486;13.374;2023-02-15T14:40:19;19.37;;;13.67;;
3355;SDS011;1691;52.486;13.374;2023-02-15T14:46:11;28.83;;;18.63;;
3355;SDS011;1691;52.486;13.374;2023-02-15T14:48:50;26.87;;;18.20;;
3355;SDS011;1691;52.486;13.374;2023-02-15T14:52:21;24.30;;;17.60;;
3355;SDS011;1691;52.486;13.374;2023-02-15T14:57:20;24.63;;;15.97;;
3355;SDS011;1691;52.486;13.374;2023-02-15T14:59:50;33.23;;;15.90;;
3355;SDS011;1691;52.486;13.374;2023-02-15T15:02:27;31.23;;;16.80;;
3355;SDS011;1691;52.486;13.374;2023-02-15T15:05:49;30.80;;;16.60;;
3355;SDS011;1691;52.486;13.374;2023-02-15T15:08:29;23.03;;;16.37;;
3355;SDS011;1691;52.486;13.374;2023-02-15T15:14:08;19.73;;;14.33;;
3355;SDS011;1691;52.486;13.374;2023-02-15T15:16:49;30.77;;;14.67;;
3355;SDS011;1691;52.486;13.374;2023-02-15T15:24:52;19.10;;;12.90;;
3355;SDS011;1691;52.486;13.374;2023-02-15T15:28:04;24.00;;;15.23;;
3355;SDS011;1691;52.486;13.374;2023-02-15T15:33:44;27.07;;;17.00;;
3355;SDS011;1691;52.486;13.374;2023-02-15T15:39:27;23.67;;;14.83;;
3355;SDS011;1691;52.486;13.374;2023-02-15T15:43:19;28.73;;;16.07;;
3355;SDS011;1691;52.486;13.374;2023-02-15T15:49:10;27.67;;;17.50;;
3355;SDS011;1691;52.486;13.374;2023-02-15T15:51:42;28.87;;;17.00;;
3355;SDS011;1691;52.486;13.374;2023-02-15T15:54:21;27.27;;;17.07;;
3355;SDS011;1691;52.486;13.374;2023-02-15T15:57:00;24.47;;;15.90;;
3355;SDS011;1691;52.486;13.374;2023-02-15T15:59:31;30.50;;;16.20;;
3355;SDS011;1691;52.486;13.374;2023-02-15T16:02:04;26.70;;;17.93;;
3355;SDS011;1691;52.486;13.374;2023-02-15T16:04:34;26.03;;;16.07;;
3355;SDS011;1691;52.486;13.374;2023-02-15T16:09:58;25.27;;;16.13;;
3355;SDS011;1691;52.486;13.374;2023-02-15T16:12:33;31.30;;;17.40;;
3355;SDS011;1691;52.486;13.374;2023-02-15T16:15:13;33.90;;;19.30;;
3355;SDS011;1691;52.486;13.374;2023-02-15T16:17:44;28.63;;;17.60;;
3355;SDS011;1691;52.486;13.374;2023-02-15T16:22:49;32.13;;;19.43;;
3355;SDS011;1691;52.486;13.374;2023-02-15T16:25:42;30.17;;;17.60;;
3355;SDS011;1691;52.486;13.374;2023-02-15T16:28:31;39.73;;;19.67;;
3355;SDS011;1691;52.486;13.374;2023-02-15T16:31:04;27.07;;;17.33;;
3355;SDS011;1691;52.486;13.374;2023-02-15T16:33:41;34.50;;;18.20;;
3355;SDS011;1691;52.486;13.374;2023-02-15T16:36:11;34.83;;;18.00;;
3355;SDS011;1691;52.486;13.374;2023-02-15T16:41:16;31.47;;;17.23;;
3355;SDS011;1691;52.486;13.374;2023-02-15T16:43:49;35.90;;;17.30;;
3355;SDS011;1691;52.486;13.374;2023-02-15T16:46:24;26.80;;;17.43;;
3355;SDS011;1691;52.486;13.374;2023-02-15T16:48:58;27.67;;;17.37;;
3355;SDS011;1691;52.486;13.374;2023-02-15T16:51:31;35.80;;;20.40;;
3355;SDS011;1691;52.486;13.374;2023-02-15T16:54:03;32.67;;;17.77;;
3355;SDS011;1691;52.486;13.374;2023-02-15T16:56:34;28.13;;;16.57;;
3355;SDS011;1691;52.486;13.374;2023-02-15T16:59:02;40.13;;;20.03;;
3355;SDS011;1691;52.486;13.374;2023-02-15T17:01:30;41.40;;;20.13;;
3355;SDS011;1691;52.486;13.374;2023-02-15T17:07:05;31.33;;;18.03;;
3355;SDS011;1691;52.486;13.374;2023-02-15T17:09:54;36.30;;;18.37;;
3355;SDS011;1691;52.486;13.374;2023-02-15T17:15:27;41.23;;;21.43;;
3355;SDS011;1691;52.486;13.374;2023-02-15T17:20:44;43.03;;;20.37;;
3355;SDS011;1691;52.486;13.374;2023-02-15T17:23:47;41.70;;;21.63;;
3355;SDS011;1691;52.486;13.374;2023-02-15T17:28:51;30.20;;;19.07;;
3355;SDS011;1691;52.486;13.374;2023-02-15T17:31:23;33.27;;;20.07;;
3355;SDS011;1691;52.486;13.374;2023-02-15T17:33:57;30.70;;;18.17;;
3355;SDS011;1691;52.486;13.374;2023-02-15T17:36:26;38.63;;;20.20;;
3355;SDS011;1691;52.486;13.374;2023-02-15T17:39:00;27.80;;;18.50;;
3355;SDS011;1691;52.486;13.374;2023-02-15T17:41:49;25.00;;;16.33;;
3355;SDS011;1691;52.486;13.374;2023-02-15T17:44:19;28.50;;;18.20;;
3355;SDS011;1691;52.486;13.374;2023-02-15T17:46:46;22.17;;;14.30;;
3355;SDS011;1691;52.486;13.374;2023-02-15T17:49:18;22.93;;;14.57;;
3355;SDS011;1691;52.486;13.374;2023-02-15T17:51:51;18.30;;;13.07;;
3355;SDS011;1691;52.486;13.374;2023-02-15T17:54:18;25.93;;;13.47;;
3355;SDS011;1691;52.486;13.374;2023-02-15T17:57:07;28.63;;;16.87;;
3355;SDS011;1691;52.486;13.374;2023-02-15T17:59:39;20.93;;;13.00;;
3355;SDS011;1691;52.486;13.374;2023-02-15T18:02:27;18.80;;;13.60;;
3355;SDS011;1691;52.486;13.374;2023-02-15T18:05:19;18.57;;;12.77;;
3355;SDS011;1691;52.486;13.374;2023-02-15T18:08:07;28.13;;;15.07;;
3355;SDS011;1691;52.486;13.374;2023-02-15T18:10:59;31.87;;;16.20;;
3355;SDS011;1691;52.486;13.374;2023-02-15T18:13:46;24.40;;;14.77;;
3355;SDS011;1691;52.486;13.374;2023-02-15T18:16:19;57.23;;;27.40;;
3355;SDS011;1691;52.486;13.374;2023-02-15T18:18:50;51.23;;;28.17;;
3355;SDS011;1691;52.486;13.374;2023-02-15T18:21:18;28.57;;;16.33;;
3355;SDS011;1691;52.486;13.374;2023-02-15T18:23:45;21.60;;;16.70;;
3355;SDS011;1691;52.486;13.374;2023-02-15T18:26:16;26.90;;;16.60;;
3355;SDS011;1691;52.486;13.374;2023-02-15T18:28:46;25.93;;;16.33;;